Time;durP1;ratioP1;P1;durP2;ratioP2;P2;SDS_P1;SDS_P2;PMS_P1;PMS_P2;Temp;Humidity;BMP_temperature;BMP_pressure;BME280_temperature;BME280_humidity;BME280_pressure;Samples;Min_cycle;Max_cycle;Signal;HPM_P1;HPM_P2
2022/11/25 00:00:37;;;;;;;5.50;3.47;;;20.30;99.90;;;;;;4238245;27;20212;-75
2022/11/25 00:02:43;;;;;;;8.10;3.58;;;20.30;99.90;;;;;;4245589;27;20621;-76
2022/11/25 00:04:45;;;;;;;5.60;3.47;;;20.30;99.90;;;;;;4245847;27;20221;-76
2022/11/25 00:06:47;;;;;;;8.48;3.78;;;20.30;99.90;;;;;;4242010;27;20240;-76
2022/11/25 00:08:53;;;;;;;7.30;3.85;;;20.30;99.90;;;;;;4235989;27;20282;-75
2022/11/25 00:10:56;;;;;;;8.35;3.90;;;20.30;99.90;;;;;;4235225;27;20724;-76
2022/11/25 00:12:58;;;;;;;8.73;3.80;;;20.20;99.90;;;;;;4245327;27;20257;-75
2022/11/25 00:15:02;;;;;;;7.15;3.60;;;20.20;99.90;;;;;;4242440;28;20225;-76
2022/11/25 00:17:04;;;;;;;9.80;4.28;;;20.30;99.90;;;;;;4245927;27;20236;-76
2022/11/25 00:19:06;;;;;;;5.72;3.35;;;20.30;99.90;;;;;;4236260;27;20251;-75
2022/11/25 00:21:11;;;;;;;9.07;3.78;;;20.30;99.90;;;;;;4239236;27;20244;-75
2022/11/25 00:23:13;;;;;;;9.38;3.58;;;20.20;99.90;;;;;;4245571;28;20709;-76
2022/11/25 00:25:16;;;;;;;9.07;3.88;;;20.20;99.90;;;;;;4240759;28;20274;-76
2022/11/25 00:27:18;;;;;;;8.90;4.25;;;20.20;99.90;;;;;;4243286;27;20237;-76
2022/11/25 00:29:21;;;;;;;8.05;3.95;;;20.20;99.90;;;;;;4235739;27;20225;-75
2022/11/25 00:31:26;;;;;;;7.97;3.47;;;20.20;99.90;;;;;;4244109;28;20661;-76
2022/11/25 00:33:28;;;;;;;7.57;3.55;;;20.30;99.90;;;;;;4235398;27;20270;-75
2022/11/25 00:35:30;;;;;;;9.15;3.50;;;20.20;99.90;;;;;;4245647;28;20224;-75
2022/11/25 00:37:33;;;;;;;9.35;3.92;;;20.30;99.90;;;;;;4248904;27;20220;-76
2022/11/25 00:39:35;;;;;;;8.23;3.75;;;20.30;99.90;;;;;;4252378;27;20216;-76
2022/11/25 00:46:34;;;;;;;8.48;3.88;;;20.30;99.90;;;;;;4195141;28;20264;-76
2022/11/25 00:48:37;;;;;;;7.45;3.40;;;20.20;99.90;;;;;;4193981;28;20977;-75
2022/11/25 00:50:39;;;;;;;6.22;3.05;;;20.20;99.90;;;;;;4196332;28;20219;-76
2022/11/25 00:52:41;;;;;;;6.47;3.40;;;20.20;99.90;;;;;;4244533;27;20213;-76
2022/11/25 00:54:44;;;;;;;6.82;3.40;;;20.10;99.90;;;;;;4248884;27;20201;-75
2022/11/25 00:56:47;;;;;;;7.78;3.78;;;20.20;99.90;;;;;;4244352;27;20217;-76
2022/11/25 00:58:49;;;;;;;7.30;3.28;;;20.20;99.90;;;;;;4237763;27;20213;-75
2022/11/25 01:00:51;;;;;;;7.10;3.30;;;20.20;99.90;;;;;;4236075;27;20322;-76
2022/11/25 01:02:55;;;;;;;7.03;3.50;;;20.10;99.90;;;;;;4234255;27;20214;-76
2022/11/25 01:04:57;;;;;;;8.45;3.53;;;20.10;99.90;;;;;;4236305;27;20249;-76
2022/11/25 01:07:01;;;;;;;7.88;3.50;;;20.10;99.90;;;;;;4244267;27;20297;-75
2022/11/25 01:09:04;;;;;;;5.78;2.95;;;20.10;99.90;;;;;;4247460;27;20217;-75
2022/11/25 01:11:08;;;;;;;8.00;3.67;;;20.10;99.90;;;;;;4241459;27;20632;-76
2022/11/25 01:13:10;;;;;;;7.45;3.35;;;20.10;99.90;;;;;;4247447;27;20285;-76
2022/11/25 01:15:12;;;;;;;7.75;3.75;;;20.10;99.90;;;;;;4241702;27;20209;-76
2022/11/25 01:17:14;;;;;;;8.30;3.50;;;20.10;99.90;;;;;;4232182;27;20588;-76
2022/11/25 01:19:19;;;;;;;6.95;3.35;;;20.10;99.90;;;;;;4235337;27;20217;-76
2022/11/25 01:21:23;;;;;;;6.85;3.10;;;20.10;99.90;;;;;;4232265;27;20238;-76
2022/11/25 01:23:28;;;;;;;7.63;2.95;;;20.00;99.90;;;;;;4231356;28;20225;-76
2022/11/25 01:25:30;;;;;;;8.40;3.60;;;20.00;99.90;;;;;;4231631;28;20288;-76
2022/11/25 01:27:33;;;;;;;9.00;3.30;;;20.10;99.90;;;;;;4231195;28;20245;-76
2022/11/25 01:29:35;;;;;;;5.75;3.20;;;20.00;99.90;;;;;;4231325;28;20218;-76
2022/11/25 01:31:37;;;;;;;5.53;3.38;;;20.10;99.90;;;;;;4233868;27;20213;-76
2022/11/25 01:33:40;;;;;;;6.47;3.53;;;20.00;99.90;;;;;;4239963;27;20213;-76
2022/11/25 01:35:43;;;;;;;8.60;3.42;;;20.00;99.90;;;;;;4227770;28;20259;-76
2022/11/25 01:37:46;;;;;;;7.22;3.30;;;20.00;99.90;;;;;;4229709;28;20284;-76
2022/11/25 01:39:48;;;;;;;5.80;3.00;;;20.00;99.90;;;;;;4231010;28;20218;-76
2022/11/25 01:41:50;;;;;;;6.93;3.08;;;20.00;99.90;;;;;;4231274;28;20682;-76
2022/11/25 01:44:05;;;;;;;5.70;2.85;;;20.00;99.90;;;;;;4231062;28;20225;-76
2022/11/25 01:46:17;;;;;;;6.70;3.33;;;20.00;99.90;;;;;;4231156;28;20267;-76
2022/11/25 01:48:25;;;;;;;5.68;2.60;;;20.00;99.90;;;;;;4226483;27;20610;-75
2022/11/25 01:50:28;;;;;;;6.45;2.88;;;20.00;99.90;;;;;;4226740;28;20679;-76
2022/11/25 01:52:36;;;;;;;6.50;3.35;;;20.00;99.90;;;;;;4228299;28;20260;-76
2022/11/25 01:54:42;;;;;;;5.18;2.70;;;19.90;99.90;;;;;;4230863;28;20213;-76
2022/11/25 01:56:49;;;;;;;7.13;3.17;;;20.00;99.90;;;;;;4230694;28;20279;-76
2022/11/25 01:58:52;;;;;;;6.95;3.03;;;20.00;99.90;;;;;;4227068;28;20217;-76
2022/11/25 02:00:54;;;;;;;4.25;2.53;;;20.00;99.90;;;;;;4229394;28;20263;-76
2022/11/25 02:02:58;;;;;;;6.32;2.78;;;20.00;99.90;;;;;;4230908;28;20214;-76
2022/11/25 02:05:03;;;;;;;6.10;3.20;;;20.00;99.90;;;;;;4230746;28;20291;-76
2022/11/25 02:07:10;;;;;;;5.53;3.10;;;19.90;99.90;;;;;;4226427;27;20275;-76
2022/11/25 02:09:15;;;;;;;5.43;2.47;;;19.90;99.90;;;;;;4227924;28;20212;-76
2022/11/25 02:11:19;;;;;;;5.32;3.08;;;20.00;99.90;;;;;;4228210;28;20267;-76
2022/11/25 02:13:23;;;;;;;5.93;3.05;;;19.90;99.90;;;;;;4230264;28;20725;-76
2022/11/25 02:15:26;;;;;;;6.10;2.88;;;19.90;99.90;;;;;;4230511;28;20221;-75
2022/11/25 02:17:29;;;;;;;8.63;2.85;;;19.90;99.90;;;;;;4230220;28;20275;-75
2022/11/25 02:19:43;;;;;;;6.00;3.08;;;19.90;99.90;;;;;;4230092;28;20254;-75
2022/11/25 02:21:54;;;;;;;5.63;2.85;;;19.90;99.90;;;;;;4238452;27;20216;-76
2022/11/25 02:24:03;;;;;;;5.57;2.90;;;19.90;99.90;;;;;;4247246;27;20262;-75
2022/11/25 02:26:07;;;;;;;5.50;2.78;;;19.90;99.90;;;;;;4247158;27;20250;-75
2022/11/25 02:28:14;;;;;;;4.72;2.35;;;19.90;99.90;;;;;;4242219;27;20232;-76
2022/11/25 02:30:16;;;;;;;4.85;2.50;;;19.90;99.90;;;;;;4247305;27;20221;-75
2022/11/25 02:32:21;;;;;;;4.85;2.45;;;19.90;99.90;;;;;;4246285;27;20217;-75
2022/11/25 02:34:23;;;;;;;5.65;2.55;;;19.90;99.90;;;;;;4245606;27;20212;-76
2022/11/25 02:36:26;;;;;;;6.90;3.25;;;19.90;99.90;;;;;;4244036;27;20679;-75
2022/11/25 02:38:38;;;;;;;5.18;2.30;;;19.90;99.90;;;;;;4247083;27;20209;-75
2022/11/25 02:40:45;;;;;;;5.20;2.80;;;19.80;99.90;;;;;;4246907;27;20270;-75
2022/11/25 02:42:50;;;;;;;4.07;2.50;;;19.80;99.90;;;;;;4235474;27;20214;-75
2022/11/25 02:44:52;;;;;;;5.05;2.47;;;19.80;99.90;;;;;;4233296;27;20546;-75
2022/11/25 02:46:55;;;;;;;5.10;2.60;;;19.90;99.90;;;;;;4242429;27;20221;-75
2022/11/25 02:48:59;;;;;;;5.25;2.85;;;19.90;99.90;;;;;;4247019;27;20289;-75
2022/11/25 02:51:02;;;;;;;6.13;2.88;;;19.80;99.90;;;;;;4246994;27;20225;-75
2022/11/25 02:53:05;;;;;;;4.22;2.35;;;19.80;99.90;;;;;;4247159;27;20262;-76
2022/11/25 02:55:08;;;;;;;6.03;2.70;;;19.80;99.90;;;;;;4246941;27;20221;-76
2022/11/25 02:57:10;;;;;;;3.97;2.40;;;19.80;99.90;;;;;;4246417;27;20274;-75
2022/11/25 02:59:14;;;;;;;5.28;2.40;;;19.80;99.90;;;;;;4246512;27;20254;-75
2022/11/25 03:01:16;;;;;;;5.00;2.50;;;19.90;99.90;;;;;;4245226;27;20315;-76
2022/11/25 03:03:19;;;;;;;4.40;2.20;;;19.80;99.90;;;;;;4247175;27;20274;-75
2022/11/25 03:05:21;;;;;;;5.13;2.60;;;19.80;99.90;;;;;;4246944;27;20213;-75
2022/11/25 03:07:24;;;;;;;4.72;2.40;;;19.80;99.90;;;;;;4243374;27;20270;-75
2022/11/25 03:09:26;;;;;;;4.50;2.35;;;19.80;99.90;;;;;;4245312;27;20336;-75
2022/11/25 03:13:45;;;;;;;4.47;2.63;;;19.80;99.90;;;;;;4243397;27;20285;-75
2022/11/25 03:15:48;;;;;;;4.85;2.40;;;19.80;99.90;;;;;;4244326;27;20286;-75
2022/11/25 03:17:51;;;;;;;5.05;2.72;;;19.80;99.90;;;;;;4244541;27;20236;-75
2022/11/25 03:19:53;;;;;;;4.90;2.58;;;19.80;99.90;;;;;;4243146;27;20271;-75
2022/11/25 03:21:56;;;;;;;4.00;2.47;;;19.70;99.90;;;;;;4238867;27;20213;-75
2022/11/25 03:23:58;;;;;;;6.88;2.50;;;19.80;99.90;;;;;;4239314;27;20222;-76
2022/11/25 03:26:05;;;;;;;4.82;2.15;;;19.80;99.90;;;;;;4231525;27;20268;-75
2022/11/25 03:28:07;;;;;;;6.47;2.78;;;19.70;99.90;;;;;;4233304;27;20282;-75
2022/11/25 03:30:13;;;;;;;5.18;2.05;;;19.70;99.90;;;;;;4235695;27;20222;-76
2022/11/25 03:32:17;;;;;;;3.60;2.28;;;19.80;99.90;;;;;;4226866;27;20213;-76
2022/11/25 03:34:19;;;;;;;5.50;2.65;;;19.70;99.90;;;;;;4230363;27;20259;-76
2022/11/25 03:36:21;;;;;;;5.68;2.60;;;19.70;99.90;;;;;;4226976;27;20211;-75
2022/11/25 03:38:24;;;;;;;4.20;2.20;;;19.70;99.90;;;;;;4233126;27;20217;-75
2022/11/25 03:40:26;;;;;;;3.88;2.20;;;19.70;99.90;;;;;;4233431;27;20217;-76
2022/11/25 03:42:28;;;;;;;4.95;2.30;;;19.70;99.90;;;;;;4237384;27;20217;-76
2022/11/25 03:44:31;;;;;;;4.78;2.20;;;19.70;99.90;;;;;;4231737;27;20256;-76
2022/11/25 03:46:33;;;;;;;5.45;2.53;;;19.70;99.90;;;;;;4233363;27;20270;-76
2022/11/25 03:48:37;;;;;;;6.00;2.80;;;19.70;99.90;;;;;;4231327;27;20242;-75
2022/11/25 03:50:41;;;;;;;4.30;2.30;;;19.70;99.90;;;;;;4236810;27;20217;-76
2022/11/25 03:52:43;;;;;;;6.07;2.30;;;19.70;99.90;;;;;;4236226;27;20205;-75
2022/11/25 03:54:45;;;;;;;5.25;2.45;;;19.70;99.90;;;;;;4234820;27;20217;-76
2022/11/25 03:56:47;;;;;;;5.10;2.63;;;19.60;99.90;;;;;;4233293;27;20213;-76
2022/11/25 03:58:50;;;;;;;4.50;2.25;;;19.70;99.90;;;;;;4230543;27;20270;-76
2022/11/25 04:00:52;;;;;;;4.53;2.40;;;19.60;99.90;;;;;;4228473;27;20267;-76
2022/11/25 04:02:55;;;;;;;6.40;2.25;;;19.60;99.90;;;;;;4232434;27;20218;-76
2022/11/25 04:04:59;;;;;;;5.35;2.47;;;19.60;99.90;;;;;;4236360;27;20225;-76
2022/11/25 04:07:01;;;;;;;3.78;1.77;;;19.60;99.90;;;;;;4227135;27;20214;-76
2022/11/25 04:09:03;;;;;;;4.43;2.15;;;19.60;99.90;;;;;;4230931;27;20649;-76
2022/11/25 04:11:06;;;;;;;5.28;2.63;;;19.60;99.90;;;;;;4233258;27;20209;-76
2022/11/25 04:13:07;;;;;;;5.57;2.50;;;19.60;99.90;;;;;;4231580;27;20376;-76
2022/11/25 04:15:10;;;;;;;5.70;2.72;;;19.60;99.90;;;;;;4229903;27;20213;-76
2022/11/25 04:17:12;;;;;;;3.90;2.33;;;19.60;99.90;;;;;;4232407;28;20223;-76
2022/11/25 04:19:15;;;;;;;3.30;2.15;;;19.60;99.90;;;;;;4238107;28;20218;-76
2022/11/25 04:21:18;;;;;;;4.93;2.38;;;19.60;99.90;;;;;;4240037;28;20286;-76
2022/11/25 04:23:21;;;;;;;3.10;1.85;;;19.60;99.90;;;;;;4244454;28;20278;-76
2022/11/25 04:25:23;;;;;;;3.88;1.92;;;19.60;99.90;;;;;;4240171;28;20275;-76
2022/11/25 04:27:26;;;;;;;5.20;2.47;;;19.60;99.90;;;;;;4239428;28;20217;-76
2022/11/25 04:29:28;;;;;;;6.15;2.42;;;19.60;99.90;;;;;;4244246;28;20361;-76
2022/11/25 04:31:30;;;;;;;4.72;2.10;;;19.60;99.90;;;;;;4240135;28;20259;-76
2022/11/25 04:33:33;;;;;;;4.82;2.72;;;19.60;99.90;;;;;;4242345;28;20606;-76
2022/11/25 04:35:35;;;;;;;4.05;2.03;;;19.60;99.90;;;;;;4244541;27;20633;-76
2022/11/25 04:37:39;;;;;;;3.75;2.15;;;19.60;99.90;;;;;;4241436;28;20217;-76
2022/11/25 04:39:41;;;;;;;3.85;2.15;;;19.60;99.90;;;;;;4241150;28;20218;-76
2022/11/25 04:41:43;;;;;;;5.13;1.90;;;19.60;99.90;;;;;;4243982;28;20225;-76
2022/11/25 04:43:46;;;;;;;4.50;2.08;;;19.60;99.90;;;;;;4242516;28;20257;-76
2022/11/25 04:45:49;;;;;;;5.10;2.10;;;19.60;99.90;;;;;;4241559;28;20209;-75
2022/11/25 04:47:52;;;;;;;3.80;2.20;;;19.60;99.90;;;;;;4244662;28;20220;-76
2022/11/25 04:49:54;;;;;;;6.32;2.17;;;19.60;99.90;;;;;;4241783;28;20298;-76
2022/11/25 04:51:56;;;;;;;4.10;1.90;;;19.60;99.90;;;;;;4244418;28;20217;-76
2022/11/25 04:54:00;;;;;;;4.45;2.30;;;19.60;99.90;;;;;;4244599;28;20278;-76
2022/11/25 04:56:02;;;;;;;3.92;2.20;;;19.60;99.90;;;;;;4242639;28;20221;-76
2022/11/25 04:58:05;;;;;;;4.50;2.15;;;19.50;99.90;;;;;;4244330;28;20225;-76
2022/11/25 05:00:08;;;;;;;3.80;2.08;;;19.60;99.90;;;;;;4243522;28;20238;-76
2022/11/25 05:02:14;;;;;;;4.80;2.30;;;19.50;99.90;;;;;;4243066;28;20213;-76
2022/11/25 05:04:17;;;;;;;3.40;2.10;;;19.60;99.90;;;;;;4241930;28;20641;-76
2022/11/25 05:06:19;;;;;;;5.38;2.17;;;19.50;99.90;;;;;;4243107;28;20669;-76
2022/11/25 05:08:21;;;;;;;4.30;2.30;;;19.50;99.90;;;;;;4241655;28;20708;-76
2022/11/25 05:10:25;;;;;;;2.95;1.90;;;19.50;99.90;;;;;;4243317;28;20307;-76
2022/11/25 05:12:29;;;;;;;4.43;2.30;;;19.50;99.90;;;;;;4244455;28;20247;-76
2022/11/25 05:14:31;;;;;;;5.18;2.17;;;19.50;99.90;;;;;;4238813;27;20664;-76
2022/11/25 05:16:34;;;;;;;4.28;1.85;;;19.50;99.90;;;;;;4243700;28;20229;-76
2022/11/25 05:18:36;;;;;;;3.70;1.92;;;19.50;99.90;;;;;;4244201;28;20286;-76
2022/11/25 05:20:38;;;;;;;4.10;2.20;;;19.50;99.90;;;;;;4240837;27;20236;-76
2022/11/25 05:22:40;;;;;;;4.22;2.15;;;19.50;99.90;;;;;;4244514;27;21089;-76
2022/11/25 05:24:43;;;;;;;5.18;2.17;;;19.50;99.90;;;;;;4247593;27;20677;-76
2022/11/25 05:26:47;;;;;;;4.60;1.98;;;19.50;99.90;;;;;;4240996;27;20312;-76
2022/11/25 05:28:49;;;;;;;3.78;1.92;;;19.50;99.90;;;;;;4245184;27;20261;-76
2022/11/25 05:30:51;;;;;;;4.50;2.15;;;19.50;99.90;;;;;;4247873;27;20217;-76
2022/11/25 05:32:54;;;;;;;5.03;2.33;;;19.50;99.90;;;;;;4244958;27;20225;-76
2022/11/25 05:34:56;;;;;;;4.32;2.08;;;19.50;99.90;;;;;;4243857;27;20213;-76
2022/11/25 05:36:59;;;;;;;4.88;1.83;;;19.50;99.90;;;;;;4247192;27;20637;-76
2022/11/25 05:39:01;;;;;;;3.80;2.00;;;19.40;99.90;;;;;;4245260;27;20221;-76
2022/11/25 05:41:05;;;;;;;4.93;2.00;;;19.40;99.90;;;;;;4247021;27;20225;-76
2022/11/25 05:43:09;;;;;;;4.68;2.10;;;19.40;99.90;;;;;;4245575;27;20270;-76
2022/11/25 05:45:12;;;;;;;5.30;2.50;;;19.50;99.90;;;;;;4246107;27;20269;-76
2022/11/25 05:47:14;;;;;;;2.75;1.67;;;19.40;99.90;;;;;;4246865;27;20221;-76
2022/11/25 05:49:17;;;;;;;5.10;2.00;;;19.50;99.90;;;;;;4245247;27;20237;-76
2022/11/25 05:51:19;;;;;;;3.75;2.08;;;19.40;99.90;;;;;;4245823;27;20297;-76
2022/11/25 05:53:22;;;;;;;4.97;2.10;;;19.40;99.90;;;;;;4245850;27;20221;-76
2022/11/25 05:55:24;;;;;;;5.28;2.08;;;19.40;99.90;;;;;;4246921;27;20246;-76
2022/11/25 05:57:27;;;;;;;5.10;1.85;;;19.40;99.90;;;;;;4244930;27;20242;-76
2022/11/25 05:59:31;;;;;;;3.70;2.08;;;19.40;99.90;;;;;;4245111;27;20267;-76
2022/11/25 06:01:34;;;;;;;3.55;2.00;;;19.40;99.90;;;;;;4244921;27;20216;-76
2022/11/25 06:03:36;;;;;;;4.78;2.10;;;19.40;99.90;;;;;;4247074;27;20665;-76
2022/11/25 06:05:40;;;;;;;4.88;2.30;;;19.50;99.90;;;;;;4247010;27;20266;-76
2022/11/25 06:07:42;;;;;;;4.00;1.98;;;19.50;99.90;;;;;;4243935;27;20657;-76
2022/11/25 06:09:44;;;;;;;5.63;1.95;;;19.50;99.90;;;;;;4243746;27;20278;-76
2022/11/25 06:11:46;;;;;;;4.13;2.03;;;19.50;99.90;;;;;;4246715;27;20217;-76
2022/11/25 06:13:49;;;;;;;3.85;1.73;;;19.50;99.90;;;;;;4245484;27;20217;-76
2022/11/25 06:15:52;;;;;;;3.17;1.95;;;19.50;99.90;;;;;;4246437;27;20217;-76
2022/11/25 06:17:55;;;;;;;3.65;1.92;;;19.50;99.90;;;;;;4240688;27;20277;-76
2022/11/25 06:19:58;;;;;;;2.97;1.90;;;19.50;99.90;;;;;;4242550;27;20249;-76
2022/11/25 06:22:00;;;;;;;3.15;1.65;;;19.50;99.90;;;;;;4230002;27;20279;-76
2022/11/25 06:24:03;;;;;;;3.80;1.92;;;19.60;99.90;;;;;;4233566;27;20283;-76
2022/11/25 06:26:06;;;;;;;3.95;2.08;;;19.50;99.90;;;;;;4230078;27;20689;-76
2022/11/25 06:28:09;;;;;;;3.80;1.70;;;19.60;99.90;;;;;;4233034;27;20222;-76
2022/11/25 06:30:13;;;;;;;2.65;1.70;;;19.60;99.90;;;;;;4231816;27;20229;-76
2022/11/25 06:32:16;;;;;;;3.95;2.00;;;19.60;99.90;;;;;;4230097;27;20269;-76
2022/11/25 06:34:19;;;;;;;4.65;2.00;;;19.60;99.90;;;;;;4228406;27;20225;-76
2022/11/25 06:36:22;;;;;;;2.60;1.60;;;19.60;99.90;;;;;;4231825;27;20210;-76
2022/11/25 06:38:24;;;;;;;4.93;1.92;;;19.60;99.90;;;;;;4233285;27;20282;-76
2022/11/25 06:40:27;;;;;;;2.63;1.58;;;19.70;99.90;;;;;;4231018;27;20209;-76
2022/11/25 06:42:29;;;;;;;3.05;1.70;;;19.70;99.90;;;;;;4229578;27;20251;-75
2022/11/25 06:44:31;;;;;;;2.92;1.63;;;19.70;99.90;;;;;;4232600;27;20362;-76
2022/11/25 06:46:34;;;;;;;5.15;2.50;;;19.70;99.90;;;;;;4226674;27;20225;-76
2022/11/25 06:48:38;;;;;;;4.90;2.03;;;19.70;99.90;;;;;;4231068;27;20276;-76
2022/11/25 06:50:40;;;;;;;2.90;1.55;;;19.70;99.90;;;;;;4231940;27;20635;-75
2022/11/25 06:52:43;;;;;;;4.78;1.90;;;19.80;99.90;;;;;;4230889;27;20267;-76
2022/11/25 06:54:45;;;;;;;5.35;1.80;;;19.80;99.90;;;;;;4226527;27;20226;-75
2022/11/25 06:56:50;;;;;;;4.38;2.00;;;19.80;99.90;;;;;;4230946;27;20243;-76
2022/11/25 06:58:53;;;;;;;3.47;1.88;;;19.80;99.90;;;;;;4230399;27;20608;-75
2022/11/25 07:01:01;;;;;;;3.65;1.77;;;19.80;99.90;;;;;;4230933;27;20258;-75
2022/11/25 07:03:03;;;;;;;4.20;2.00;;;19.80;99.90;;;;;;4231057;27;20268;-74
2022/11/25 07:05:07;;;;;;;2.97;1.75;;;19.90;99.90;;;;;;4224692;27;20295;-76
2022/11/25 07:07:10;;;;;;;4.15;1.60;;;19.90;99.90;;;;;;4230389;27;20221;-75
2022/11/25 07:09:12;;;;;;;4.95;1.73;;;19.90;99.90;;;;;;4230189;27;20218;-75
2022/11/25 07:11:17;;;;;;;3.03;1.55;;;19.90;99.90;;;;;;4228967;27;20354;-75
2022/11/25 07:13:20;;;;;;;2.70;1.65;;;19.90;99.90;;;;;;4229443;27;20283;-75
2022/11/25 07:15:22;;;;;;;4.15;1.83;;;19.90;99.90;;;;;;4227665;27;20271;-75
2022/11/25 07:17:24;;;;;;;4.00;1.70;;;20.00;99.90;;;;;;4226628;27;20218;-75
2022/11/25 07:19:32;;;;;;;3.22;2.03;;;20.00;99.90;;;;;;4229249;27;20267;-75
2022/11/25 07:21:36;;;;;;;4.60;2.00;;;20.00;99.90;;;;;;4237681;27;20642;-76
2022/11/25 07:23:39;;;;;;;4.30;1.80;;;20.10;99.90;;;;;;4237514;27;20258;-75
2022/11/25 07:25:41;;;;;;;3.72;1.55;;;20.00;99.90;;;;;;4238995;27;20288;-75
2022/11/25 07:27:43;;;;;;;3.08;1.45;;;20.00;99.90;;;;;;4236138;27;20259;-75
2022/11/25 07:29:46;;;;;;;3.30;1.63;;;20.00;99.90;;;;;;4237934;27;20229;-75
2022/11/25 07:31:48;;;;;;;4.70;1.75;;;20.00;99.90;;;;;;4237962;27;20213;-75
2022/11/25 07:33:52;;;;;;;3.88;1.88;;;20.10;99.90;;;;;;4236467;27;20244;-76
2022/11/25 07:35:54;;;;;;;2.60;1.40;;;20.00;99.90;;;;;;4235995;27;20221;-75
2022/11/25 07:37:58;;;;;;;4.30;1.90;;;20.10;99.90;;;;;;4241372;27;20232;-75
2022/11/25 07:40:00;;;;;;;3.60;1.73;;;20.10;99.90;;;;;;4236007;27;20217;-76
2022/11/25 07:42:03;;;;;;;6.05;2.30;;;20.10;99.90;;;;;;4239057;27;20221;-75
2022/11/25 07:44:07;;;;;;;4.07;1.80;;;20.10;99.90;;;;;;4234774;27;20629;-75
2022/11/25 07:46:12;;;;;;;2.80;1.65;;;20.10;99.90;;;;;;4238668;27;20981;-75
2022/11/25 07:48:14;;;;;;;3.65;1.50;;;20.10;99.90;;;;;;4240457;27;20205;-75
2022/11/25 07:50:17;;;;;;;3.38;1.90;;;20.10;99.90;;;;;;4240771;27;20298;-75
2022/11/25 07:52:19;;;;;;;3.60;1.70;;;20.20;99.90;;;;;;4239161;27;20217;-76
2022/11/25 07:54:24;;;;;;;4.22;1.75;;;20.10;99.90;;;;;;4238299;27;20262;-76
2022/11/25 07:56:27;;;;;;;6.38;2.03;;;20.10;99.90;;;;;;4240215;27;20279;-75
2022/11/25 07:58:29;;;;;;;6.43;2.33;;;20.00;99.90;;;;;;4242665;27;20212;-71
2022/11/25 08:00:32;;;;;;;7.97;2.40;;;19.90;99.90;;;;;;4236387;27;20209;-73
2022/11/25 08:02:34;;;;;;;7.03;1.90;;;20.00;99.90;;;;;;4243573;27;20213;-72
2022/11/25 08:04:36;;;;;;;8.43;1.98;;;20.20;99.90;;;;;;4234739;27;20221;-73
2022/11/25 08:06:41;;;;;;;6.75;2.03;;;20.20;99.90;;;;;;4238478;27;20216;-72
2022/11/25 08:08:44;;;;;;;6.95;1.90;;;20.30;99.90;;;;;;4243337;27;20217;-73
2022/11/25 08:10:48;;;;;;;11.32;2.38;;;20.40;99.90;;;;;;4239589;27;20238;-73
2022/11/25 08:12:50;;;;;;;5.13;1.80;;;20.40;99.90;;;;;;4243779;27;20250;-73
2022/11/25 08:14:52;;;;;;;3.97;1.70;;;20.40;99.90;;;;;;4235965;27;20213;-73
2022/11/25 08:16:55;;;;;;;4.80;2.38;;;20.40;99.90;;;;;;4243082;27;20602;-73
2022/11/25 08:18:58;;;;;;;5.22;1.85;;;20.50;99.90;;;;;;4233563;27;20270;-73
2022/11/25 08:21:02;;;;;;;9.45;1.95;;;20.40;99.90;;;;;;4228813;27;20229;-73
2022/11/25 08:23:05;;;;;;;4.70;1.70;;;20.50;99.90;;;;;;4226425;28;20218;-72
2022/11/25 08:25:08;;;;;;;4.85;1.70;;;20.60;99.90;;;;;;4221277;28;20222;-72
2022/11/25 08:27:11;;;;;;;4.93;1.70;;;20.60;99.90;;;;;;4222699;28;20271;-73
2022/11/25 08:29:16;;;;;;;3.90;1.45;;;20.60;99.90;;;;;;4230540;28;20299;-73
2022/11/25 08:31:20;;;;;;;6.85;1.92;;;20.60;99.90;;;;;;4225210;28;20233;-73
2022/11/25 08:33:23;;;;;;;4.65;2.25;;;20.60;99.90;;;;;;4222233;28;20618;-72
2022/11/25 08:35:25;;;;;;;6.43;2.40;;;20.60;99.90;;;;;;4223080;28;20217;-71
2022/11/25 08:37:30;;;;;;;6.32;1.95;;;20.60;99.90;;;;;;4225267;28;20214;-72
2022/11/25 08:39:32;;;;;;;5.38;2.00;;;20.60;99.90;;;;;;4227328;28;20259;-73
2022/11/25 08:41:36;;;;;;;5.60;1.63;;;20.70;99.90;;;;;;4227821;28;20214;-74
2022/11/25 08:43:40;;;;;;;6.85;2.20;;;20.70;99.90;;;;;;4221004;28;20283;-73
2022/11/25 08:45:43;;;;;;;6.47;2.03;;;20.70;99.90;;;;;;4219463;28;20280;-71
2022/11/25 08:47:45;;;;;;;7.85;1.80;;;20.80;99.90;;;;;;4228514;28;20222;-72
2022/11/25 08:49:51;;;;;;;6.45;1.67;;;20.80;99.90;;;;;;4225677;28;20218;-72
2022/11/25 08:51:53;;;;;;;3.97;1.90;;;20.80;99.90;;;;;;4224978;28;20291;-72
2022/11/25 08:53:56;;;;;;;6.88;2.00;;;20.70;99.90;;;;;;4230627;28;20665;-72
2022/11/25 08:55:58;;;;;;;6.15;1.95;;;20.80;99.90;;;;;;4223783;28;20646;-71
2022/11/25 08:58:00;;;;;;;6.95;1.90;;;20.80;99.90;;;;;;4221549;28;20909;-74
2022/11/25 09:00:05;;;;;;;7.30;2.47;;;20.70;99.90;;;;;;4223473;27;20659;-72
2022/11/25 09:02:09;;;;;;;5.00;1.80;;;20.80;99.90;;;;;;4223325;27;20906;-73
2022/11/25 09:04:11;;;;;;;5.10;1.90;;;20.90;99.90;;;;;;4226242;27;20279;-72
2022/11/25 09:06:17;;;;;;;3.58;1.58;;;20.90;99.90;;;;;;4230364;27;20218;-71
2022/11/25 09:08:20;;;;;;;6.82;2.00;;;20.90;99.90;;;;;;4228669;27;20258;-72
2022/11/25 09:10:22;;;;;;;6.13;1.90;;;20.90;99.90;;;;;;4237233;27;20633;-72
2022/11/25 09:12:26;;;;;;;9.30;1.92;;;21.00;99.90;;;;;;4224731;27;20626;-74
2022/11/25 09:14:28;;;;;;;6.07;2.08;;;21.00;99.90;;;;;;4226015;27;20213;-74
2022/11/25 09:16:35;;;;;;;8.23;1.92;;;21.00;99.90;;;;;;4227366;27;20623;-76
2022/11/25 09:18:38;;;;;;;8.70;2.10;;;21.00;99.90;;;;;;4224690;27;20685;-75
2022/11/25 09:20:41;;;;;;;5.53;1.95;;;21.00;99.90;;;;;;4219800;27;20242;-75
2022/11/25 09:22:43;;;;;;;6.43;1.70;;;21.00;99.90;;;;;;4231106;27;20677;-73
2022/11/25 09:24:46;;;;;;;5.57;1.55;;;21.10;99.90;;;;;;4236130;27;20210;-74
2022/11/25 09:26:51;;;;;;;5.82;1.55;;;21.10;99.90;;;;;;4226532;27;20214;-74
2022/11/25 09:28:53;;;;;;;4.82;1.73;;;21.10;99.90;;;;;;4237795;27;20751;-73
2022/11/25 09:30:56;;;;;;;3.55;1.67;;;21.10;99.90;;;;;;4237697;27;20210;-73
2022/11/25 09:32:59;;;;;;;4.53;1.58;;;21.10;99.90;;;;;;4233511;27;20221;-73
2022/11/25 09:35:02;;;;;;;4.05;1.55;;;21.10;99.90;;;;;;4238949;27;20217;-73
2022/11/25 09:37:04;;;;;;;3.63;1.75;;;21.10;99.90;;;;;;4234937;27;20218;-74
2022/11/25 09:39:06;;;;;;;5.60;2.25;;;21.20;99.90;;;;;;4230271;27;20686;-75
2022/11/25 09:46:40;;;;;;;3.75;1.63;;;21.20;99.90;;;;;;4237403;27;20217;-75
2022/11/25 09:48:54;;;;;;;5.15;2.00;;;21.40;99.90;;;;;;4215537;27;20287;-73
2022/11/25 09:51:09;;;;;;;5.78;1.63;;;21.30;99.90;;;;;;4229585;27;20214;-74
2022/11/25 09:53:25;;;;;;;6.93;1.60;;;21.30;99.90;;;;;;4224255;28;20282;-75
2022/11/25 09:55:33;;;;;;;4.25;1.50;;;21.30;99.90;;;;;;4233692;27;20213;-72
2022/11/25 09:57:52;;;;;;;3.85;1.50;;;21.40;99.90;;;;;;4230851;27;20262;-72
2022/11/25 10:00:05;;;;;;;6.07;2.00;;;21.40;99.90;;;;;;4235610;27;20737;-73
2022/11/25 10:02:17;;;;;;;4.85;1.60;;;21.40;99.90;;;;;;4217267;27;20282;-74
2022/11/25 10:04:25;;;;;;;7.07;1.80;;;21.40;99.90;;;;;;4239503;27;20677;-73
2022/11/25 10:06:31;;;;;;;6.22;1.80;;;21.30;99.90;;;;;;4229301;27;20663;-73
2022/11/25 10:08:38;;;;;;;7.60;1.70;;;21.40;99.90;;;;;;4242510;27;20577;-72
2022/11/25 10:10:44;;;;;;;5.65;1.67;;;21.40;99.90;;;;;;4222245;28;20726;-76
2022/11/25 10:12:49;;;;;;;4.72;1.70;;;21.40;99.90;;;;;;4229919;27;20229;-74
2022/11/25 10:14:55;;;;;;;4.72;2.08;;;21.50;99.90;;;;;;4237130;27;20628;-76
2022/11/25 10:17:05;;;;;;;8.45;2.42;;;21.40;99.90;;;;;;4226271;27;20221;-73
2022/11/25 10:19:19;;;;;;;15.52;2.50;;;21.50;99.90;;;;;;4228533;27;20235;-71
2022/11/25 10:21:24;;;;;;;11.88;2.50;;;21.40;99.90;;;;;;4235986;27;20225;-72
2022/11/25 10:23:31;;;;;;;12.10;2.60;;;21.40;99.90;;;;;;4238496;27;20271;-72
2022/11/25 10:25:38;;;;;;;5.13;1.80;;;21.40;99.90;;;;;;4240883;27;20210;-71
2022/11/25 10:27:46;;;;;;;29.02;3.90;;;21.40;99.90;;;;;;4244245;27;20221;-72
2022/11/25 10:29:59;;;;;;;14.45;2.42;;;21.40;99.90;;;;;;4244548;27;20246;-73
2022/11/25 10:32:19;;;;;;;13.07;2.75;;;21.40;99.90;;;;;;4242185;27;20244;-72
2022/11/25 10:34:29;;;;;;;7.90;2.20;;;21.40;99.90;;;;;;4238420;27;20318;-71
2022/11/25 10:36:38;;;;;;;11.63;2.30;;;21.50;99.90;;;;;;4238524;27;20365;-73
2022/11/25 10:38:44;;;;;;;14.63;2.10;;;21.50;99.90;;;;;;4241916;27;20271;-75
2022/11/25 10:40:49;;;;;;;16.05;2.40;;;21.50;99.90;;;;;;4246374;27;20266;-75
2022/11/25 10:42:53;;;;;;;11.50;2.20;;;21.50;99.90;;;;;;4241186;27;20609;-74
2022/11/25 10:44:55;;;;;;;7.45;1.83;;;21.60;99.90;;;;;;4243811;27;20205;-75
2022/11/25 10:47:11;;;;;;;7.55;1.90;;;21.60;99.90;;;;;;4243697;27;20212;-75
2022/11/25 10:49:24;;;;;;;9.30;2.00;;;21.70;99.90;;;;;;4246272;27;20208;-75
2022/11/25 10:51:37;;;;;;;5.88;1.90;;;21.70;99.90;;;;;;4246483;27;20266;-73
2022/11/25 10:53:40;;;;;;;13.45;2.30;;;21.70;99.90;;;;;;4242398;27;20208;-74
2022/11/25 10:55:57;;;;;;;15.23;2.53;;;21.80;99.90;;;;;;4247491;27;20216;-72